aviador You're here:

KFRM Decoded Metar

FAIRMONT MUNI in MN, USA
Report Time2017-05-23 13:56:00
UTC Time2017-05-23 14:38:26
Flight Rules mvfr MVFR
Wind340° at 11 kt
W.Decomp.*RWY 31: 9.9 kt HW 4.8 kt RCW
RWY 02: 7.9 kt HW 7.6 kt LCW
W.Rank340° ranks 10
Current wind is above 340° avg. (9.5)
Visibility9999 m
Phenomena:N/A
Clouds:Scattered 012 Hf
Broken 024 Hf
Overcast 100 Hf
Expected CloudBase > 1,200 ft AGL from Temp-Dew spread
Ceiling2,400 ft
Temp09°C (ISA -4)
Dew Point06°C (82% RH)
AAT4.1°C
QNH1011 hPa
Density Alt919 ft
Elevation1,161 ft
Report Wrong Elevation
Raw Report
METAR KFRM 231356Z AUTO 34011KT 10SM SCT012 BKN024 OVC100 09/06 A2985
RMK AO2 SLP115 T00940061=

Extra information for KFRM:More info

Metar Taf Metar & Taf Last 4 Metars F.Rules Stats Wind Profile Meteogram Temp Stats Airport Information Weather charts Add Link Nearby VenuesMetar ALERT Operation Metar Decoded Social comments

AIRNAV info for KFRM